Radiosonde details



Informationen :

Serial : X4950274
Type : Vaisala RS41-SG
Date of production : 05.12.2025
Frequency : 403.920MHz
Launchsite : Bucharest
Nearest town : -

Altitude (Max) : 15388m at 2026-09-04 12:07:50
Speed (Max) : 420km/h at altitude 5870m

Average speed : 41km/h
Average ascent rate : 4m/s
Average descent rate : -66m/s
Ascent rate (Max) : 6.9m/s
Descent rate (Max): -130.9m/s

First frame :
LZ4TU-5 at 2026-09-04 11:07:56 at altitude 1665m (OG: 1545m)
Last frame :
LZ4TU-5 at 2026-09-04 13:13:48 at altitude 12699m (OG: 12657m)

Flighttime : 2h5m52s
Ascent time : 59m54s
Descent time : 1h5m58s
Uptime : -
Killtimer : 8h02m

Distance (Straight line distance): 12629km

Distance (Route):


Frames : 145


Measurement :

Temperature : 4.2°C
Humidity : 61.1%
Pressure : 0hPa


Vertical profile (SkewT) :


Elevation profile :



Receiving stations :


Receiver Frames First received Last received
LZ4TU-5 145 2026-09-04 11:07:56 2026-09-04 13:13:48

Share per receiver :



All frames :


Receiver Date Latitude Longitude Direction Speed Altitude Climb Temperature Humidity Pressure Voltage Killtimer Uptime BKT XDATA
LZ4TU-52026-09-04 13:13:48-50.52565-45.648130km/h12699m0.0m/s4.2°C61.1%0hPa0V00:00:0000:00:0000:00:00
LZ4TU-52026-09-04 13:13:43-50.52565-45.648130km/h12699m0.0m/s3.8°C61.7%0hPa0V00:00:0000:00:0000:00:00
LZ4TU-52026-09-04 13:12:34-50.52565-45.648130km/h12699m0.0m/s-0.3°C52.5%0hPa0V00:00:0000:00:0000:00:00
LZ4TU-52026-09-04 13:12:30-50.52565-45.648130km/h12699m0.0m/s-0.7°C0%0hPa0V00:00:0000:00:0000:00:00
LZ4TU-52026-09-04 13:11:21-50.52565-45.648130km/h12699m0.0m/s-4.2°C28.0%0hPa0V00:00:0000:00:0000:00:00
LZ4TU-52026-09-04 13:11:16-50.52565-45.648130km/h12699m0.0m/s-4.4°C25.4%0hPa0V00:00:0000:00:0000:00:00
LZ4TU-52026-09-04 13:10:04-50.52565-45.648130km/h12699m0.0m/s-10.0°C35.9%0hPa0V00:00:0000:00:0000:00:00
LZ4TU-52026-09-04 13:10:00-50.52565-45.648130km/h12699m0.0m/s-10.3°C0%0hPa0V00:00:0000:00:0000:00:00
LZ4TU-52026-09-04 13:08:48-50.52565-45.648130km/h12699m0.0m/s-14.1°C11.3%0hPa0V00:00:0000:00:0000:00:00
LZ4TU-52026-09-04 13:08:44-50.52565-45.648130km/h12699m0.0m/s-14.4°C0%0hPa0V00:00:0000:00:0000:00:00
LZ4TU-52026-09-04 13:07:32-50.52565-45.648130km/h12699m0.0m/s-19.2°C16.4%0hPa0V00:00:0000:00:0000:00:00
LZ4TU-52026-09-04 13:07:28-50.52565-45.648130km/h12699m0.0m/s-19.5°C17.1%0hPa0V00:00:0000:00:0000:00:00
LZ4TU-52026-09-04 13:05:12-50.52565-45.648130km/h12699m0.0m/s-29.2°C36.2%0hPa0V00:00:0000:00:0000:00:00
LZ4TU-52026-09-04 13:05:08-50.52565-45.648130km/h12699m0.0m/s-29.6°C36.1%0hPa0V00:00:0000:00:0000:00:00
LZ4TU-52026-09-04 13:03:54-50.52565-45.648130km/h12699m0.0m/s-36.9°C26.2%0hPa0V00:00:0000:00:0000:00:00
LZ4TU-52026-09-04 13:03:50-50.52565-45.648130km/h12699m0.0m/s-37.3°C0%0hPa0V00:00:0000:00:0000:00:00
LZ4TU-52026-09-04 13:02:29-50.52565-45.648130km/h12699m0.0m/s-46.9°C27.3%0hPa0V00:00:0000:00:0000:00:00
LZ4TU-52026-09-04 13:02:25-50.52565-45.648130km/h12699m0.0m/s-47.3°C28.7%0hPa0V00:00:0000:00:0000:00:00
LZ4TU-52026-09-04 13:01:03-50.52565-45.648130km/h12699m0.0m/s-54.4°C30.1%0hPa0V00:00:0000:00:0000:00:00
LZ4TU-52026-09-04 13:00:59-50.52565-45.648130km/h12699m0.0m/s-55.0°C30.0%0hPa0V00:00:0000:00:0000:00:00
LZ4TU-52026-09-04 12:56:34-50.52565-45.648130km/h12699m0.0m/s-57.0°C2.1%0hPa0V08:02:0000:00:0000:00:00
LZ4TU-52026-09-04 12:56:30-50.52565-45.648130km/h12699m0.0m/s-57.4°C2.2%0hPa0V00:00:0000:00:0000:00:00
LZ4TU-52026-09-04 12:53:30-50.89558-45.254940km/h12834m0.0m/s-55.1°C1.9%0hPa0V00:00:0000:00:0000:00:00
LZ4TU-52026-09-04 12:53:26-51.11886-40.734820km/h12916m0.0m/s-54.7°C1.9%0hPa0V00:00:0000:00:0000:00:00
LZ4TU-52026-09-04 12:51:26-47.88798-76.458460km/h11724m0.0m/s-52.0°C1.7%0hPa0V08:07:0000:00:0000:00:00
LZ4TU-52026-09-04 12:51:22-47.88798-76.458460km/h11724m0.0m/s-51.8°C1.7%0hPa0V00:00:0000:00:0000:00:00
LZ4TU-52026-09-04 12:49:38-47.88798-76.458460km/h11724m0.0m/s-45.8°C1.2%0hPa0V00:00:0000:00:0000:00:00
LZ4TU-52026-09-04 12:49:34-47.88798-76.458460km/h11724m0.0m/s-46.5°C1.3%0hPa0V00:00:0000:00:0000:00:00
LZ4TU-52026-09-04 12:47:37-47.88798-76.458460km/h11724m0.0m/s-46.7°C1.3%0hPa0V00:00:0000:00:0000:00:00
LZ4TU-52026-09-04 12:47:33-47.88798-76.458460km/h11724m0.0m/s-46.9°C1.3%0hPa0V00:00:0000:00:0000:00:00
LZ4TU-52026-09-04 12:45:32-47.88798-76.458460km/h11724m0.0m/s-46.3°C1.3%0hPa0V00:00:0000:00:0000:00:00
LZ4TU-52026-09-04 12:43:38-47.78574-76.210970km/h11686m0.0m/s-48.1°C1.4%0hPa0V00:00:0000:00:0000:00:00
LZ4TU-52026-09-04 12:43:34-47.76326-76.216290km/h11678m0.0m/s-48.1°C3.5%0hPa0V00:00:0000:00:0000:00:00
LZ4TU-52026-09-04 12:40:56-2.39139-68.928430km/h37m0.0m/s-49.2°C3.6%0hPa0V08:18:0000:00:0000:00:00
LZ4TU-52026-09-04 12:40:51-7.09979-68.423640km/h324m0.0m/s-49.2°C3.6%0hPa0V00:00:0000:00:0000:00:00
LZ4TU-52026-09-04 12:38:48-4.98214-68.855610km/h160m0.0m/s-49.9°C3.8%0hPa0V00:00:0000:00:0000:00:00
LZ4TU-52026-09-04 12:38:43-4.09923-68.987340km/h109m0.0m/s-49.9°C0%0hPa0V00:00:0000:00:0000:00:00
LZ4TU-52026-09-04 12:36:49-6.72372-66.781990km/h291m0.0m/s-51.1°C3.8%0hPa0V00:00:0000:00:0000:00:00
LZ4TU-52026-09-04 12:36:45-10.93326-67.238090km/h763m0.0m/s-51.4°C1.9%0hPa0V00:00:0000:00:0000:00:00
LZ4TU-52026-09-04 12:34:4941.00212-67.179740km/h9161m0.0m/s-52.4°C2.0%0hPa0V00:00:0000:00:0000:00:00
LZ4TU-52026-09-04 12:34:4442.59321-68.605370km/h9751m0.0m/s-52.3°C4.0%0hPa0V00:00:0000:00:0000:00:00
LZ4TU-52026-09-04 12:28:30-12.02549-77.1031487°414km/h5870m-130.9m/s-54.3°C2.6%0hPa0V00:00:0000:00:0000:00:00
LZ4TU-52026-09-04 12:28:25-12.02570-77.1082589°358km/h6532m-129.3m/s-54.2°C4.1%0hPa0V00:00:0000:00:0000:00:00
LZ4TU-52026-09-04 12:26:20-12.04784-77.05263291°199km/h990m0.2m/s-55.6°C4.3%0hPa0V00:00:0000:00:0000:00:00
LZ4TU-52026-09-04 12:26:16-12.04830-77.05063278°199km/h988m-0.6m/s-55.6°C4.3%0hPa0V00:00:0000:00:0000:00:00
LZ4TU-52026-09-04 12:24:19-12.04823-77.04814262°199km/h983m0.1m/s-56.7°C4.4%0hPa0V00:00:0000:00:0000:00:00
LZ4TU-52026-09-04 12:24:14-12.04748-77.04565248°193km/h983m-2.0m/s-57.1°C2.9%0hPa0V00:00:0000:00:0000:00:00
LZ4TU-52026-09-04 12:22:06-33.68304-65.040690km/h6539m0.0m/s-55.8°C2.8%0hPa0V00:00:0000:00:0000:00:00
LZ4TU-52026-09-04 12:22:02-33.72405-64.839230km/h6554m0.0m/s-55.6°C1.9%0hPa0V00:00:0000:00:0000:00:00
LZ4TU-52026-09-04 12:20:00-48.87333-50.204770km/h12090m0.0m/s-55.3°C1.9%0hPa0V00:00:0000:00:0000:00:00
LZ4TU-52026-09-04 12:19:55-46.85333-38.052660km/h11339m0.0m/s-55.8°C4.7%0hPa0V00:00:0000:00:0000:00:00
LZ4TU-52026-09-04 12:16:08-11.30606-86.140270km/h815m0.0m/s-55.2°C4.4%0hPa0V00:00:0000:00:0000:00:00
LZ4TU-52026-09-04 12:16:03-9.42599-85.656600km/h569m0.0m/s-55.0°C4.0%0hPa0V00:00:0000:00:0000:00:00
LZ4TU-52026-09-04 12:14:0416.37496-75.978530km/h1686m0.0m/s-55.7°C4.8%0hPa0V00:00:0000:00:0000:00:00
LZ4TU-52026-09-04 12:13:59-2.19461-82.685390km/h31m0.0m/s-55.7°C2.9%0hPa0V00:00:0000:00:0000:00:00
LZ4TU-52026-09-04 12:12:11-34.14033-75.928600km/h6697m0.0m/s-55.2°C2.8%0hPa0V00:00:0000:00:0000:00:00
LZ4TU-52026-09-04 12:12:06-34.29563-72.721400km/h6751m0.0m/s-55.2°C2.7%0hPa0V00:00:0000:00:0000:00:00
LZ4TU-52026-09-04 12:12:01-34.87123-72.777690km/h6951m0.0m/s-55.0°C2.8%0hPa0V00:00:0000:00:0000:00:00
LZ4TU-52026-09-04 12:11:56-38.43807-67.172520km/h8222m0.0m/s-54.9°C2.4%0hPa0V00:00:0000:00:0000:00:00
LZ4TU-52026-09-04 12:11:52-38.43807-67.172520km/h8222m0.0m/s-55.0°C2.4%0hPa0V00:00:0000:00:0000:00:00
LZ4TU-52026-09-04 12:11:48-39.54413-67.433510km/h8625m0.0m/s-55.2°C4.3%0hPa0V00:00:0000:00:0000:00:00
LZ4TU-52026-09-04 12:10:01-12.51187-78.821100km/h996m0.0m/s-56.5°C4.7%0hPa0V00:00:0000:00:0000:00:00
LZ4TU-52026-09-04 12:09:56-26.48254-72.994900km/h4224m0.0m/s-56.4°C3.6%0hPa0V00:00:0000:00:0000:00:00
LZ4TU-52026-09-04 12:07:59-26.48254-72.994900km/h4224m0.0m/s-56.8°C3.9%0hPa0V00:00:0000:00:0000:00:00
LZ4TU-52026-09-04 12:07:5043.9782226.209880km/h15388m0.0m/s-56.6°C2.3%0hPa0V00:00:0000:00:0000:00:00
LZ4TU-52026-09-04 12:05:4143.9789426.20601106°18km/h15255m4.5m/s-55.4°C2.2%0hPa0V00:00:0000:00:0000:00:00
LZ4TU-52026-09-04 12:05:3643.9789826.20577112°11km/h15232m4.5m/s-55.2°C2.2%0hPa0V00:00:0000:00:0000:00:00
LZ4TU-52026-09-04 12:03:4143.9809626.19774108°31km/h14750m4.7m/s-53.7°C2.0%0hPa0V00:00:0000:00:0000:00:00
LZ4TU-52026-09-04 12:03:3643.9810926.19718108°35km/h14732m4.4m/s-53.6°C2.0%0hPa0V00:00:0000:00:0000:00:00
LZ4TU-52026-09-04 12:01:5243.9859926.18500120°60km/h14289m3.8m/s-54.4°C2.2%0hPa0V00:00:0000:00:0000:00:00
LZ4TU-52026-09-04 12:01:4743.9863526.18402114°62km/h14268m3.4m/s-54.3°C2.2%0hPa0V00:00:0000:00:0000:00:00
LZ4TU-52026-09-04 11:59:5843.9937826.16533124°44km/h13801m3.9m/s-55.1°C2.3%0hPa0V00:00:0000:00:0000:00:00
LZ4TU-52026-09-04 11:59:5343.9940726.16466120°46km/h13779m3.8m/s-55.4°C0%0hPa0V00:00:0000:00:0000:00:00
LZ4TU-52026-09-04 11:58:1144.0004726.15576154°29km/h13348m4.8m/s-53.9°C2.2%0hPa0V00:00:0000:00:0000:00:00
LZ4TU-52026-09-04 11:58:0744.0007026.15560156°24km/h13331m4.8m/s-54.0°C2.3%0hPa0V00:00:0000:00:0000:00:00
LZ4TU-52026-09-04 11:56:2144.0126426.15277171°64km/h12879m4.8m/s-53.2°C3.1%0hPa0V00:00:0000:00:0000:00:00
LZ4TU-52026-09-04 11:56:1644.0134826.15255170°68km/h12857m4.3m/s-53.6°C3.3%0hPa0V00:00:0000:00:0000:00:00
LZ4TU-52026-09-04 11:54:2744.0346226.15047182°89km/h12388m4.4m/s-57.9°C23.0%0hPa0V00:00:0000:00:0000:00:00
LZ4TU-52026-09-04 11:54:2244.0357726.15051184°91km/h12368m4.5m/s-57.9°C24.8%0hPa0V00:00:0000:00:0000:00:00
LZ4TU-52026-09-04 11:52:3244.0648726.15885195°131km/h11877m4.6m/s-57.3°C51.4%0hPa0V00:00:0000:00:0000:00:00
LZ4TU-52026-09-04 11:52:2844.0661726.15929195°133km/h11858m5.3m/s-57.1°C49.5%0hPa0V00:00:0000:00:0000:00:00
LZ4TU-52026-09-04 11:50:3944.1021526.17235197°133km/h11381m4.2m/s-52.6°C30.7%0hPa0V00:00:0000:00:0000:00:00
LZ4TU-52026-09-04 11:50:3544.1034526.17284196°135km/h11364m4.9m/s-52.4°C0%0hPa0V00:00:0000:00:0000:00:00
LZ4TU-52026-09-04 11:48:3744.1471126.18989196°157km/h10859m4.4m/s-50.0°C34.8%0hPa0V00:00:0000:00:0000:00:00
LZ4TU-52026-09-04 11:48:3244.1490326.19062197°159km/h10839m3.7m/s-49.9°C35.6%0hPa0V00:00:0000:00:0000:00:00
LZ4TU-52026-09-04 11:46:4944.1885426.20596197°155km/h10437m2.7m/s-46.4°C35.2%0hPa0V00:00:0000:00:0000:00:00
LZ4TU-52026-09-04 11:46:4444.1904526.20673197°161km/h10418m3.8m/s-46.3°C35.3%0hPa0V00:00:0000:00:0000:00:00
LZ4TU-52026-09-04 11:44:5744.2316726.22275198°157km/h10021m3.4m/s-43.0°C32.1%0hPa0V00:00:0000:00:0000:00:00
LZ4TU-52026-09-04 11:44:5444.2331926.22342198°159km/h10005m3.2m/s-42.8°C32.7%0hPa0V00:00:0000:00:0000:00:00
LZ4TU-52026-09-04 11:43:1644.2680326.23948201°139km/h9629m3.6m/s-39.7°C0%0hPa0V00:00:0000:00:0000:00:00
LZ4TU-52026-09-04 11:43:1144.2696826.24032201°141km/h9609m4.8m/s-39.6°C27.7%0hPa0V00:00:0000:00:0000:00:00
LZ4TU-52026-09-04 11:41:3644.2997926.25395198°120km/h9241m4.1m/s-36.6°C36.0%0hPa0V00:00:0000:00:0000:00:00
LZ4TU-52026-09-04 11:39:2744.3356926.26703193°111km/h8735m4.3m/s-32.6°C53.3%0hPa0V00:00:0000:00:0000:00:00
LZ4TU-52026-09-04 11:39:2344.3367726.26735193°110km/h8719m4.1m/s-32.5°C53.7%0hPa0V00:00:0000:00:0000:00:00
LZ4TU-52026-09-04 11:37:3344.3658826.27515190°97km/h8282m3.6m/s-29.2°C48.8%0hPa0V00:00:0000:00:0000:00:00
LZ4TU-52026-09-04 11:35:5044.3909226.28110193°86km/h7860m3.9m/s-26.3°C44.3%0hPa0V00:00:0000:00:0000:00:00
LZ4TU-52026-09-04 11:35:4844.3919926.28142193°88km/h7842m4.8m/s-26.2°C43.8%0hPa0V00:00:0000:00:0000:00:00
LZ4TU-52026-09-04 11:34:2444.4068626.28486192°71km/h7559m4.9m/s-24.1°C34.1%0hPa0V00:00:0000:00:0000:00:00
LZ4TU-52026-09-04 11:34:1944.4077726.28511189°73km/h7541m3.9m/s-24.1°C32.0%0hPa0V00:00:0000:00:0000:00:00
LZ4TU-52026-09-04 11:33:0544.4197926.28707184°57km/h7257m2.8m/s-22.2°C14.3%0hPa0V00:00:0000:00:0000:00:00
LZ4TU-52026-09-04 11:33:0044.4203526.28711184°57km/h7242m4.4m/s-22.1°C13.5%0hPa0V00:00:0000:00:0000:00:00
LZ4TU-52026-09-04 11:31:5144.4292626.28663179°44km/h6980m3.4m/s-20.9°C4.6%0hPa0V00:00:0000:00:0000:00:00
LZ4TU-52026-09-04 11:31:4744.4297326.28661181°47km/h6964m3.4m/s-20.8°C4.5%0hPa0V00:00:0000:00:0000:00:00
LZ4TU-52026-09-04 11:30:4144.4367226.28526167°37km/h6697m3.6m/s-19.0°C9.9%0hPa0V00:00:0000:00:0000:00:00
LZ4TU-52026-09-04 11:30:3644.4371626.28513166°35km/h6677m4.7m/s-18.8°C10.8%0hPa0V00:00:0000:00:0000:00:00
LZ4TU-52026-09-04 11:29:2944.4418826.28282168°29km/h6423m4.1m/s-17.0°C14.5%0hPa0V00:00:0000:00:0000:00:00
LZ4TU-52026-09-04 11:29:2444.4422926.28276175°37km/h6406m3.5m/s-16.9°C14.6%0hPa0V00:00:0000:00:0000:00:00
LZ4TU-52026-09-04 11:28:1544.4473026.28096168°26km/h6168m4.4m/s-15.7°C35.3%0hPa0V00:00:0000:00:0000:00:00
LZ4TU-52026-09-04 11:28:1044.4476226.28084165°26km/h6149m3.2m/s-15.6°C35.6%0hPa0V00:00:0000:00:0000:00:00
LZ4TU-52026-09-04 11:26:5544.4524426.27848164°26km/h5899m3.9m/s-14.5°C40.8%0hPa0V00:00:0000:00:0000:00:00
LZ4TU-52026-09-04 11:26:5044.4527526.27836170°27km/h5881m4.3m/s-14.4°C40.7%0hPa0V00:00:0000:00:0000:00:00
LZ4TU-52026-09-04 11:25:4844.4570926.27647157°31km/h5653m3.7m/s-12.6°C37.7%0hPa0V00:00:0000:00:0000:00:00
LZ4TU-52026-09-04 11:25:4344.4574826.27625157°33km/h5634m3.0m/s-12.5°C37.8%0hPa0V00:00:0000:00:0000:00:00
LZ4TU-52026-09-04 11:24:3844.4617826.27419164°29km/h5390m3.1m/s-10.8°C38.5%0hPa0V00:00:0000:00:0000:00:00
LZ4TU-52026-09-04 11:24:3344.4621026.27403165°26km/h5372m4.6m/s-10.6°C38.4%0hPa0V00:00:0000:00:0000:00:00
LZ4TU-52026-09-04 11:23:3144.4665826.27236167°31km/h5135m3.0m/s-9.0°C41.4%0hPa0V00:00:0000:00:0000:00:00
LZ4TU-52026-09-04 11:22:2344.4720726.27131174°38km/h4888m4.0m/s-7.3°C43.0%0hPa0V00:00:0000:00:0000:00:00
LZ4TU-52026-09-04 11:22:1844.4725126.27123174°33km/h4870m3.8m/s-7.1°C43.2%0hPa0V00:00:0000:00:0000:00:00
LZ4TU-52026-09-04 11:21:1744.4772426.27059169°26km/h4625m3.6m/s-5.8°C45.2%0hPa0V00:00:0000:00:0000:00:00
LZ4TU-52026-09-04 11:21:1244.4775326.27051170°24km/h4599m6.9m/s-5.8°C46.4%0hPa0V00:00:0000:00:0000:00:00
LZ4TU-52026-09-04 11:20:1044.4794326.26899119°15km/h4352m3.4m/s-5.7°C66.1%0hPa0V00:00:0000:00:0000:00:00
LZ4TU-52026-09-04 11:20:0544.4795026.26881129°7km/h4333m4.0m/s-5.5°C65.6%0hPa0V00:00:0000:00:0000:00:00
LZ4TU-52026-09-04 11:19:0344.4802126.26673144°16km/h4078m4.7m/s-3.3°C57.1%0hPa0V00:00:0000:00:0000:00:00
LZ4TU-52026-09-04 11:18:5844.4803826.26657140°15km/h4059m3.3m/s-3.2°C56.2%0hPa0V00:00:0000:00:0000:00:00
LZ4TU-52026-09-04 11:17:5844.4824626.26484156°16km/h3848m2.9m/s-1.8°C59.0%0hPa0V00:00:0000:00:0000:00:00
LZ4TU-52026-09-04 11:17:5344.4826426.26469150°16km/h3830m4.1m/s-1.7°C0%0hPa0V00:00:0000:00:0000:00:00
LZ4TU-52026-09-04 11:16:5844.4848826.26268157°20km/h3643m3.0m/s-0.4°C65.5%0hPa0V00:00:0000:00:0000:00:00
LZ4TU-52026-09-04 11:16:5344.4851226.26252148°20km/h3627m3.7m/s-0.3°C0%0hPa0V00:00:0000:00:0000:00:00
LZ4TU-52026-09-04 11:15:5844.4875126.26053143°16km/h3455m2.5m/s0.9°C0%0hPa0V00:00:0000:00:0000:00:00
LZ4TU-52026-09-04 11:15:5344.4877026.26035149°18km/h3438m2.9m/s0.9°C0%0hPa0V00:00:0000:00:0000:00:00
LZ4TU-52026-09-04 11:14:5744.4896526.25813138°22km/h3269m3.0m/s1.3°C0%0hPa0V00:00:0000:00:0000:00:00
LZ4TU-52026-09-04 11:14:5344.4898126.25792132°24km/h3258m3.5m/s1.4°C0%0hPa0V00:00:0000:00:0000:00:00
LZ4TU-52026-09-04 11:13:5844.4915726.25470134°18km/h3079m4.0m/s2.4°C0%0hPa0V00:00:0000:00:0000:00:00
LZ4TU-52026-09-04 11:13:5344.4917526.25446134°18km/h3063m2.9m/s2.4°C0%0hPa0V00:00:0000:00:0000:00:00
LZ4TU-52026-09-04 11:12:5844.4924926.25093102°15km/h2841m3.1m/s3.6°C0%0hPa0V00:00:0000:00:0000:00:00
LZ4TU-52026-09-04 11:12:5344.4925326.2506798°22km/h2825m5.0m/s0°C0%0hPa0V00:00:0000:00:0000:00:00
LZ4TU-52026-09-04 11:11:5744.4930326.24638109°29km/h2618m4.4m/s0°C0%0hPa0V00:00:0000:00:0000:00:00
LZ4TU-52026-09-04 11:11:5344.4931526.24594106°31km/h2604m2.3m/s0°C0%0hPa0V00:00:0000:00:0000:00:00
LZ4TU-52026-09-04 11:10:5744.4938626.24141105°18km/h2377m5.5m/s0°C0%0hPa0V00:00:0000:00:0000:00:00
LZ4TU-52026-09-04 11:10:5344.4938926.24114107°22km/h2357m3.9m/s0°C0%0hPa0V00:00:0000:00:0000:00:00
LZ4TU-52026-09-04 11:09:5744.4951326.23733117°16km/h2124m5.5m/s0°C0%0hPa0V00:00:0000:00:0000:00:00
LZ4TU-52026-09-04 11:09:5344.4952126.23715107°13km/h2105m4.1m/s0°C0%0hPa0V00:00:0000:00:0000:00:00
LZ4TU-52026-09-04 11:08:5844.4961326.23424126°18km/h1891m5.8m/s0°C0%0hPa0V00:00:0000:00:0000:00:00
LZ4TU-52026-09-04 11:08:5244.4961726.2339995°15km/h1871m4.6m/s0°C0%0hPa0V00:00:0000:00:0000:00:00
LZ4TU-52026-09-04 11:07:5644.4972326.23167163°24km/h1665m4.2m/s0°C0%0hPa0V00:00:0000:00:0000:00:00


GPX KML Map

© wettersonde.net (DO2JMG) - 2026  -  -